SWR972 LEBB-EGCC
Flight info
| Callsign | SWR972 |
|---|---|
| Flight time | 1h 38m |
| Altitude | 20000 |
| Route | DOSUL N75 DELOG/N0455F380 DCT NOZHU/N0454F390 DCT SHIRI DCT TOJAQ DCT EPACE DCT ACCOP DCT MOCQO P16 AXCIS |
| Aircraft | A20N/M-SDE2E3FGHIRWXY/LB1 |
Departure
| Time | 2026-05-04 17:00 |
|---|---|
| Airport | Bilbao Airport (LEBB) |
Arrival
| Time | 2026-05-04 18:38 |
|---|---|
| Airport | Manchester Airport (EGCC) |
| Time | Latitude | Longitude | Altitude | Speed | Heading |
|---|---|---|---|---|---|
| 2026-05-04 16:47 | 43.30424 | -2.90636 | 158 ft | 0 kts | 26° |
| 2026-05-04 16:51 | 43.30418 | -2.90640 | 158 ft | 2 kts | 26° |
| 2026-05-04 16:51 | 43.30405 | -2.90649 | 158 ft | 2 kts | 26° |
| 2026-05-04 16:51 | 43.30378 | -2.90668 | 158 ft | 2 kts | 26° |
| 2026-05-04 16:52 | 43.30368 | -2.90700 | 158 ft | 0 kts | 110° |
| 2026-05-04 16:52 | 43.30371 | -2.90707 | 158 ft | 1 kts | 117° |
| 2026-05-04 16:53 | 43.30371 | -2.90710 | 157 ft | 0 kts | 115° |
| 2026-05-04 16:55 | 43.30352 | -2.90652 | 158 ft | 7 kts | 114° |
| 2026-05-04 16:56 | 43.30204 | -2.90543 | 145 ft | 16 kts | 199° |
| 2026-05-04 16:56 | 43.30029 | -2.90331 | 136 ft | 15 kts | 116° |
| 2026-05-04 16:57 | 43.29977 | -2.90189 | 134 ft | 17 kts | 117° |
| 2026-05-04 16:57 | 43.29848 | -2.89835 | 119 ft | 23 kts | 117° |
| 2026-05-04 16:58 | 43.29645 | -2.89591 | 103 ft | 14 kts | 249° |
| 2026-05-04 16:58 | 43.29629 | -2.89719 | 107 ft | 12 kts | 277° |
| 2026-05-04 16:59 | 43.29698 | -2.89937 | 118 ft | 41 kts | 297° |
| 2026-05-04 17:00 | 43.31311 | -2.94505 | 1496 ft | 162 kts | 299° |
| 2026-05-04 17:00 | 43.33217 | -2.98741 | 3102 ft | 198 kts | 321° |
| 2026-05-04 17:01 | 43.35577 | -3.01329 | 4029 ft | 240 kts | 319° |
| 2026-05-04 17:01 | 43.38172 | -3.04616 | 5467 ft | 263 kts | 317° |
| 2026-05-04 17:02 | 43.41047 | -3.07722 | 7250 ft | 270 kts | 336° |
| 2026-05-04 17:02 | 43.44788 | -3.08623 | 8889 ft | 281 kts | 352° |
| 2026-05-04 17:03 | 43.46698 | -3.09098 | 9629 ft | 284 kts | 336° |
| 2026-05-04 17:03 | 43.48392 | -3.10483 | 10387 ft | 286 kts | 320° |
| 2026-05-04 17:03 | 43.51635 | -3.14142 | 11246 ft | 319 kts | 319° |
| 2026-05-04 17:04 | 43.55300 | -3.18164 | 11900 ft | 355 kts | 320° |
| 2026-05-04 17:04 | 43.59353 | -3.22472 | 12959 ft | 373 kts | 320° |
| 2026-05-04 17:05 | 43.63509 | -3.26859 | 14343 ft | 381 kts | 320° |
| 2026-05-04 17:05 | 43.67739 | -3.31331 | 15625 ft | 388 kts | 320° |
| 2026-05-04 17:06 | 43.72099 | -3.35816 | 16863 ft | 396 kts | 321° |
| 2026-05-04 17:06 | 43.74318 | -3.38074 | 17427 ft | 400 kts | 321° |
| 2026-05-04 17:07 | 43.78831 | -3.42691 | 18559 ft | 407 kts | 321° |
| 2026-05-04 17:07 | 43.80339 | -3.44237 | 18922 ft | 410 kts | 321° |
| 2026-05-04 17:07 | 43.83413 | -3.47387 | 19625 ft | 415 kts | 321° |
| 2026-05-04 17:07 | 43.85753 | -3.49787 | 19970 ft | 417 kts | 321° |
| 2026-05-04 17:08 | 43.88077 | -3.52175 | 20390 ft | 422 kts | 321° |
| 2026-05-04 17:08 | 43.92810 | -3.57046 | 21530 ft | 426 kts | 321° |
| 2026-05-04 17:08 | 43.95200 | -3.59511 | 22033 ft | 430 kts | 321° |
| 2026-05-04 17:09 | 43.97581 | -3.61971 | 22538 ft | 433 kts | 321° |
| 2026-05-04 17:09 | 44.00011 | -3.64484 | 23035 ft | 436 kts | 321° |
| 2026-05-04 17:09 | 44.02428 | -3.66986 | 23509 ft | 439 kts | 320° |
| 2026-05-04 17:10 | 44.07354 | -3.72092 | 24441 ft | 445 kts | 320° |
| 2026-05-04 17:10 | 44.14846 | -3.79878 | 25698 ft | 453 kts | 320° |
| 2026-05-04 17:11 | 44.17400 | -3.82542 | 26102 ft | 456 kts | 320° |
| 2026-05-04 17:11 | 44.19931 | -3.85183 | 26473 ft | 458 kts | 320° |
| 2026-05-04 17:11 | 44.25043 | -3.90530 | 27197 ft | 462 kts | 320° |
| 2026-05-04 17:12 | 44.27616 | -3.93223 | 27675 ft | 461 kts | 320° |
| 2026-05-04 17:12 | 44.33225 | -3.97622 | 28523 ft | 467 kts | 340° |
| 2026-05-04 17:13 | 44.42941 | -3.98534 | 29709 ft | 471 kts | 0° |
| 2026-05-04 17:14 | 44.52752 | -3.98046 | 30728 ft | 471 kts | 0° |
| 2026-05-04 17:14 | 44.56031 | -3.97905 | 31009 ft | 470 kts | 0° |
| 2026-05-04 17:14 | 44.62572 | -3.97645 | 31587 ft | 469 kts | 0° |
| 2026-05-04 17:15 | 44.65824 | -3.97519 | 31879 ft | 468 kts | 0° |
| 2026-05-04 17:15 | 44.72294 | -3.97270 | 32384 ft | 466 kts | 0° |
| 2026-05-04 17:16 | 44.78775 | -3.97022 | 32811 ft | 465 kts | 0° |
| 2026-05-04 17:16 | 44.88504 | -3.96648 | 33388 ft | 465 kts | 0° |
| 2026-05-04 17:17 | 44.91746 | -3.96524 | 33567 ft | 465 kts | 0° |
| 2026-05-04 17:17 | 45.01459 | -3.96150 | 34195 ft | 465 kts | 0° |
| 2026-05-04 17:18 | 45.04676 | -3.96027 | 34449 ft | 464 kts | 1° |
| 2026-05-04 17:18 | 45.11088 | -3.95778 | 34947 ft | 461 kts | 1° |
| 2026-05-04 17:19 | 45.17482 | -3.95530 | 35393 ft | 459 kts | 1° |
| 2026-05-04 17:19 | 45.23846 | -3.95282 | 35788 ft | 458 kts | 0° |
| 2026-05-04 17:20 | 45.30210 | -3.95035 | 36152 ft | 457 kts | 1° |
| 2026-05-04 17:20 | 45.36524 | -3.94790 | 36483 ft | 456 kts | 0° |
| 2026-05-04 17:20 | 45.39728 | -3.94664 | 36620 ft | 457 kts | 1° |
| 2026-05-04 17:21 | 45.46055 | -3.94417 | 36894 ft | 457 kts | 1° |
| 2026-05-04 17:21 | 45.52427 | -3.94167 | 37182 ft | 456 kts | 1° |
| 2026-05-04 17:22 | 45.55556 | -3.94044 | 37329 ft | 456 kts | 1° |
| 2026-05-04 17:22 | 45.58743 | -3.93918 | 37473 ft | 455 kts | 1° |
| 2026-05-04 17:23 | 45.68229 | -3.93544 | 37857 ft | 454 kts | 1° |
| 2026-05-04 17:23 | 45.71361 | -3.93420 | 37988 ft | 454 kts | 1° |
| 2026-05-04 17:23 | 45.77672 | -3.93170 | 38246 ft | 453 kts | 0° |
| 2026-05-04 17:24 | 45.80840 | -3.93045 | 38390 ft | 453 kts | 0° |
| 2026-05-04 17:24 | 45.90280 | -3.92671 | 38750 ft | 453 kts | 1° |
| 2026-05-04 17:25 | 45.93464 | -3.92545 | 38846 ft | 454 kts | 1° |
| 2026-05-04 17:26 | 46.06123 | -3.92039 | 38953 ft | 456 kts | 0° |
| 2026-05-04 17:27 | 46.21956 | -3.91413 | 38951 ft | 454 kts | 1° |
| 2026-05-04 17:28 | 46.34558 | -3.90905 | 38954 ft | 454 kts | 1° |
| 2026-05-04 17:29 | 46.53563 | -3.90136 | 38954 ft | 455 kts | 1° |
| 2026-05-04 17:31 | 46.69318 | -3.89493 | 38955 ft | 454 kts | 1° |
| 2026-05-04 17:32 | 46.85085 | -3.88844 | 38956 ft | 456 kts | 1° |
| 2026-05-04 17:33 | 46.97902 | -3.88316 | 38949 ft | 465 kts | 1° |
| 2026-05-04 17:34 | 47.10968 | -3.87775 | 38946 ft | 472 kts | 1° |
| 2026-05-04 17:35 | 47.27463 | -3.87084 | 38957 ft | 478 kts | 1° |
| 2026-05-04 17:36 | 47.34116 | -3.86805 | 38957 ft | 480 kts | 1° |
| 2026-05-04 17:36 | 47.40816 | -3.86524 | 38952 ft | 482 kts | 1° |
| 2026-05-04 17:37 | 47.47503 | -3.86243 | 38947 ft | 484 kts | 1° |
| 2026-05-04 17:37 | 47.54245 | -3.85958 | 38950 ft | 484 kts | 1° |
| 2026-05-04 17:38 | 47.60996 | -3.85672 | 38947 ft | 484 kts | 1° |
| 2026-05-04 17:38 | 47.67688 | -3.85387 | 38947 ft | 485 kts | 1° |
| 2026-05-04 17:39 | 47.77779 | -3.84955 | 38946 ft | 483 kts | 1° |
| 2026-05-04 17:39 | 47.84520 | -3.84668 | 38946 ft | 484 kts | 1° |
| 2026-05-04 17:40 | 47.91215 | -3.84378 | 38943 ft | 485 kts | 1° |
| 2026-05-04 17:40 | 47.97946 | -3.84086 | 38942 ft | 485 kts | 1° |
| 2026-05-04 17:41 | 48.04693 | -3.83795 | 38938 ft | 484 kts | 1° |
| 2026-05-04 17:41 | 48.11409 | -3.83504 | 38939 ft | 484 kts | 1° |
| 2026-05-04 17:42 | 48.18131 | -3.83213 | 38946 ft | 484 kts | 1° |
| 2026-05-04 17:42 | 48.24827 | -3.82921 | 38949 ft | 483 kts | 1° |
| 2026-05-04 17:43 | 48.31525 | -3.82629 | 38955 ft | 482 kts | 1° |
| 2026-05-04 17:43 | 48.38219 | -3.82338 | 38956 ft | 482 kts | 1° |
| 2026-05-04 17:44 | 48.44884 | -3.82047 | 38958 ft | 482 kts | 1° |
| 2026-05-04 17:44 | 48.51577 | -3.81753 | 38963 ft | 482 kts | 1° |
| 2026-05-04 17:45 | 48.58280 | -3.81458 | 38963 ft | 482 kts | 1° |
| 2026-05-04 17:45 | 48.64955 | -3.81162 | 38967 ft | 482 kts | 1° |
| 2026-05-04 17:46 | 48.71628 | -3.80866 | 38967 ft | 482 kts | 1° |
| 2026-05-04 17:46 | 48.78318 | -3.80572 | 38969 ft | 481 kts | 1° |
| 2026-05-04 17:47 | 48.85026 | -3.80276 | 38970 ft | 480 kts | 1° |
| 2026-05-04 17:47 | 48.91701 | -3.79978 | 38970 ft | 480 kts | 1° |
| 2026-05-04 17:48 | 48.98351 | -3.79681 | 38970 ft | 480 kts | 1° |
| 2026-05-04 17:48 | 49.05044 | -3.79381 | 38977 ft | 480 kts | 1° |
| 2026-05-04 17:49 | 49.11683 | -3.79083 | 38972 ft | 480 kts | 1° |
| 2026-05-04 17:49 | 49.18346 | -3.78784 | 38981 ft | 480 kts | 2° |
| 2026-05-04 17:50 | 49.25005 | -3.78483 | 38974 ft | 480 kts | 2° |
| 2026-05-04 17:50 | 49.31643 | -3.78184 | 38984 ft | 479 kts | 2° |
| 2026-05-04 17:51 | 49.38312 | -3.77881 | 38972 ft | 478 kts | 2° |
| 2026-05-04 17:51 | 49.44927 | -3.77582 | 38981 ft | 478 kts | 2° |
| 2026-05-04 17:52 | 49.51585 | -3.77280 | 38983 ft | 478 kts | 2° |
| 2026-05-04 17:52 | 49.58201 | -3.76978 | 38980 ft | 478 kts | 2° |
| 2026-05-04 17:53 | 49.64834 | -3.76677 | 38974 ft | 479 kts | 2° |
| 2026-05-04 17:53 | 49.71482 | -3.76245 | 38984 ft | 478 kts | 4° |
| 2026-05-04 17:54 | 49.78093 | -3.75471 | 38988 ft | 476 kts | 5° |
| 2026-05-04 17:54 | 49.84708 | -3.74671 | 38981 ft | 476 kts | 5° |
| 2026-05-04 17:55 | 49.91305 | -3.73881 | 38979 ft | 475 kts | 5° |
| 2026-05-04 17:55 | 49.97903 | -3.73094 | 38976 ft | 474 kts | 5° |
| 2026-05-04 17:56 | 50.04470 | -3.72313 | 38975 ft | 474 kts | 5° |
| 2026-05-04 17:56 | 50.11070 | -3.71523 | 38978 ft | 475 kts | 5° |
| 2026-05-04 17:57 | 50.17610 | -3.70742 | 38977 ft | 475 kts | 5° |
| 2026-05-04 17:57 | 50.24205 | -3.69955 | 38974 ft | 475 kts | 5° |
| 2026-05-04 17:58 | 50.30782 | -3.69166 | 38975 ft | 475 kts | 5° |
| 2026-05-04 17:58 | 50.37338 | -3.68376 | 38975 ft | 475 kts | 5° |
| 2026-05-04 17:59 | 50.43866 | -3.67437 | 38978 ft | 474 kts | 7° |
| 2026-05-04 18:00 | 50.53708 | -3.65548 | 38983 ft | 475 kts | 7° |
| 2026-05-04 18:00 | 50.60234 | -3.64294 | 38985 ft | 475 kts | 7° |
| 2026-05-04 18:01 | 50.66776 | -3.63043 | 38979 ft | 475 kts | 7° |
| 2026-05-04 18:01 | 50.73354 | -3.61782 | 38980 ft | 474 kts | 7° |
| 2026-05-04 18:02 | 50.83168 | -3.59896 | 38979 ft | 475 kts | 7° |
| 2026-05-04 18:02 | 50.89694 | -3.58635 | 38982 ft | 475 kts | 7° |
| 2026-05-04 18:03 | 50.96245 | -3.57369 | 38994 ft | 475 kts | 7° |
| 2026-05-04 18:03 | 51.02776 | -3.56104 | 38994 ft | 476 kts | 7° |
| 2026-05-04 18:04 | 51.09347 | -3.54829 | 38997 ft | 475 kts | 7° |
| 2026-05-04 18:05 | 51.19167 | -3.52916 | 39004 ft | 475 kts | 7° |
| 2026-05-04 18:05 | 51.25706 | -3.51634 | 39004 ft | 475 kts | 7° |
| 2026-05-04 18:06 | 51.35478 | -3.49706 | 39003 ft | 474 kts | 7° |
| 2026-05-04 18:06 | 51.42035 | -3.48411 | 39009 ft | 473 kts | 7° |
| 2026-05-04 18:07 | 51.48531 | -3.47125 | 39007 ft | 471 kts | 7° |
| 2026-05-04 18:07 | 51.55011 | -3.45839 | 39009 ft | 470 kts | 7° |
| 2026-05-04 18:08 | 51.61464 | -3.44554 | 39007 ft | 470 kts | 7° |
| 2026-05-04 18:08 | 51.67929 | -3.43263 | 39011 ft | 469 kts | 7° |
| 2026-05-04 18:09 | 51.74386 | -3.41973 | 38801 ft | 462 kts | 7° |
| 2026-05-04 18:09 | 51.80629 | -3.40727 | 38286 ft | 444 kts | 7° |
| 2026-05-04 18:10 | 51.83633 | -3.40124 | 37902 ft | 440 kts | 7° |
| 2026-05-04 18:10 | 51.86664 | -3.39515 | 37441 ft | 439 kts | 8° |
| 2026-05-04 18:10 | 51.89691 | -3.38905 | 36930 ft | 439 kts | 8° |
| 2026-05-04 18:10 | 51.92725 | -3.38352 | 36030 ft | 440 kts | 6° |
| 2026-05-04 18:11 | 51.95772 | -3.38026 | 35654 ft | 439 kts | 4° |
| 2026-05-04 18:11 | 51.98803 | -3.37793 | 35223 ft | 440 kts | 4° |
| 2026-05-04 18:11 | 52.01879 | -3.37577 | 34721 ft | 442 kts | 4° |
| 2026-05-04 18:11 | 52.04925 | -3.37365 | 34002 ft | 444 kts | 4° |
| 2026-05-04 18:12 | 52.08007 | -3.37148 | 33321 ft | 444 kts | 4° |
| 2026-05-04 18:12 | 52.11046 | -3.36930 | 32679 ft | 444 kts | 4° |
| 2026-05-04 18:12 | 52.14125 | -3.36711 | 32020 ft | 443 kts | 4° |
| 2026-05-04 18:12 | 52.17224 | -3.36488 | 31346 ft | 443 kts | 4° |
| 2026-05-04 18:13 | 52.20311 | -3.36265 | 30661 ft | 443 kts | 4° |
| 2026-05-04 18:13 | 52.23378 | -3.36041 | 29951 ft | 443 kts | 4° |
| 2026-05-04 18:13 | 52.29530 | -3.35588 | 28546 ft | 442 kts | 4° |
| 2026-05-04 18:14 | 52.32602 | -3.35366 | 27884 ft | 440 kts | 4° |
| 2026-05-04 18:14 | 52.35658 | -3.35145 | 27192 ft | 440 kts | 4° |
| 2026-05-04 18:14 | 52.38723 | -3.34922 | 26462 ft | 441 kts | 5° |
| 2026-05-04 18:15 | 52.44821 | -3.34473 | 24926 ft | 444 kts | 5° |
| 2026-05-04 18:15 | 52.50938 | -3.34026 | 23706 ft | 437 kts | 5° |
| 2026-05-04 18:15 | 52.53963 | -3.33802 | 23196 ft | 432 kts | 5° |
| 2026-05-04 18:16 | 52.56961 | -3.33578 | 22687 ft | 427 kts | 5° |
| 2026-05-04 18:16 | 52.59908 | -3.33306 | 22184 ft | 422 kts | 7° |
| 2026-05-04 18:16 | 52.62793 | -3.32632 | 21684 ft | 417 kts | 13° |
| 2026-05-04 18:17 | 52.68305 | -3.30008 | 20661 ft | 408 kts | 21° |
| 2026-05-04 18:17 | 52.70945 | -3.28426 | 20154 ft | 404 kts | 21° |
| 2026-05-04 18:17 | 52.76215 | -3.25239 | 19800 ft | 411 kts | 21° |
| 2026-05-04 18:18 | 52.78904 | -3.23624 | 19822 ft | 412 kts | 21° |
| 2026-05-04 18:18 | 52.81614 | -3.21999 | 19846 ft | 412 kts | 21° |
| 2026-05-04 18:18 | 52.84284 | -3.20396 | 19863 ft | 412 kts | 21° |
| 2026-05-04 18:18 | 52.86989 | -3.18848 | 19592 ft | 413 kts | 18° |
| 2026-05-04 18:19 | 52.92569 | -3.17106 | 18444 ft | 407 kts | 5° |
| 2026-05-04 18:19 | 52.95372 | -3.16830 | 17926 ft | 403 kts | 3° |
| 2026-05-04 18:19 | 52.98129 | -3.16643 | 17422 ft | 399 kts | 2° |
| 2026-05-04 18:20 | 53.00897 | -3.16458 | 16914 ft | 395 kts | 3° |
| 2026-05-04 18:20 | 53.03647 | -3.16258 | 16388 ft | 391 kts | 2° |
| 2026-05-04 18:20 | 53.06305 | -3.16054 | 15921 ft | 387 kts | 2° |
| 2026-05-04 18:20 | 53.08995 | -3.15841 | 15377 ft | 385 kts | 2° |
| 2026-05-04 18:21 | 53.11664 | -3.15627 | 14842 ft | 381 kts | 2° |
| 2026-05-04 18:21 | 53.14286 | -3.15418 | 14349 ft | 378 kts | 2° |
| 2026-05-04 18:21 | 53.16893 | -3.15212 | 13854 ft | 374 kts | 2° |
| 2026-05-04 18:21 | 53.19496 | -3.15007 | 13361 ft | 371 kts | 2° |
| 2026-05-04 18:22 | 53.22041 | -3.14806 | 12872 ft | 368 kts | 2° |
| 2026-05-04 18:22 | 53.24578 | -3.14605 | 12542 ft | 358 kts | 2° |
| 2026-05-04 18:22 | 53.27013 | -3.14412 | 12353 ft | 345 kts | 2° |
| 2026-05-04 18:22 | 53.29373 | -3.14224 | 12179 ft | 333 kts | 2° |
| 2026-05-04 18:23 | 53.31644 | -3.14044 | 12011 ft | 321 kts | 2° |
| 2026-05-04 18:23 | 53.33831 | -3.13869 | 11851 ft | 310 kts | 2° |
| 2026-05-04 18:23 | 53.35932 | -3.13701 | 11708 ft | 298 kts | 2° |
| 2026-05-04 18:23 | 53.37950 | -3.13339 | 11544 ft | 289 kts | 17° |
| 2026-05-04 18:24 | 53.39680 | -3.11691 | 11358 ft | 285 kts | 43° |
| 2026-05-04 18:24 | 53.40840 | -3.09000 | 10942 ft | 287 kts | 59° |
| 2026-05-04 18:24 | 53.41796 | -3.06128 | 10603 ft | 286 kts | 59° |
| 2026-05-04 18:24 | 53.42778 | -3.03207 | 10267 ft | 285 kts | 59° |
| 2026-05-04 18:25 | 53.43747 | -3.00359 | 9938 ft | 283 kts | 59° |
| 2026-05-04 18:25 | 53.44724 | -2.97511 | 9613 ft | 282 kts | 58° |
| 2026-05-04 18:25 | 53.45693 | -2.94698 | 9290 ft | 280 kts | 58° |
| 2026-05-04 18:25 | 53.46669 | -2.91870 | 8971 ft | 278 kts | 58° |
| 2026-05-04 18:26 | 53.47638 | -2.89059 | 8646 ft | 277 kts | 58° |
| 2026-05-04 18:26 | 53.48588 | -2.86304 | 8323 ft | 275 kts | 58° |
| 2026-05-04 18:26 | 53.49543 | -2.83529 | 8006 ft | 274 kts | 58° |
| 2026-05-04 18:26 | 53.50482 | -2.80800 | 7685 ft | 272 kts | 58° |
| 2026-05-04 18:27 | 53.51433 | -2.78031 | 7380 ft | 270 kts | 58° |
| 2026-05-04 18:27 | 53.52362 | -2.75325 | 7165 ft | 265 kts | 58° |
| 2026-05-04 18:27 | 53.53241 | -2.72708 | 7070 ft | 253 kts | 63° |
| 2026-05-04 18:27 | 53.53680 | -2.69895 | 6989 ft | 252 kts | 87° |
| 2026-05-04 18:28 | 53.53561 | -2.66951 | 7015 ft | 259 kts | 95° |
| 2026-05-04 18:28 | 53.53332 | -2.63916 | 7031 ft | 259 kts | 96° |
| 2026-05-04 18:28 | 53.53100 | -2.60933 | 7044 ft | 260 kts | 96° |
| 2026-05-04 18:28 | 53.52869 | -2.57898 | 7040 ft | 260 kts | 96° |
| 2026-05-04 18:29 | 53.52647 | -2.54882 | 7025 ft | 260 kts | 96° |
| 2026-05-04 18:29 | 53.52429 | -2.51887 | 7005 ft | 260 kts | 96° |
| 2026-05-04 18:29 | 53.52213 | -2.48881 | 7038 ft | 259 kts | 96° |
| 2026-05-04 18:29 | 53.51997 | -2.45872 | 7002 ft | 259 kts | 96° |
| 2026-05-04 18:30 | 53.51567 | -2.39880 | 6454 ft | 260 kts | 96° |
| 2026-05-04 18:30 | 53.51350 | -2.36858 | 6136 ft | 258 kts | 96° |
| 2026-05-04 18:30 | 53.51136 | -2.33921 | 5835 ft | 255 kts | 96° |
| 2026-05-04 18:31 | 53.50920 | -2.30963 | 5554 ft | 253 kts | 96° |
| 2026-05-04 18:31 | 53.50709 | -2.28074 | 5272 ft | 251 kts | 96° |
| 2026-05-04 18:31 | 53.50499 | -2.25189 | 4983 ft | 249 kts | 96° |
| 2026-05-04 18:31 | 53.50289 | -2.22309 | 4700 ft | 247 kts | 96° |
| 2026-05-04 18:32 | 53.50080 | -2.19458 | 4422 ft | 245 kts | 96° |
| 2026-05-04 18:32 | 53.49870 | -2.16628 | 4137 ft | 243 kts | 96° |
| 2026-05-04 18:32 | 53.49663 | -2.13839 | 3865 ft | 242 kts | 96° |
| 2026-05-04 18:32 | 53.49455 | -2.11028 | 3632 ft | 238 kts | 96° |
| 2026-05-04 18:33 | 53.49254 | -2.08345 | 3614 ft | 225 kts | 96° |
| 2026-05-04 18:33 | 53.49020 | -2.05859 | 3555 ft | 213 kts | 108° |
| 2026-05-04 18:33 | 53.48154 | -2.03962 | 3502 ft | 204 kts | 152° |
| 2026-05-04 18:33 | 53.46855 | -2.03708 | 3483 ft | 183 kts | 201° |
| 2026-05-04 18:34 | 53.45925 | -2.04921 | 3368 ft | 165 kts | 233° |
| 2026-05-04 18:34 | 53.45271 | -2.06459 | 3143 ft | 160 kts | 239° |
| 2026-05-04 18:34 | 53.44669 | -2.07999 | 2920 ft | 154 kts | 239° |
| 2026-05-04 18:34 | 53.44060 | -2.09459 | 2715 ft | 152 kts | 237° |
| 2026-05-04 18:35 | 53.43427 | -2.10858 | 2547 ft | 147 kts | 236° |
| 2026-05-04 18:35 | 53.42812 | -2.12148 | 2333 ft | 139 kts | 235° |
| 2026-05-04 18:35 | 53.42203 | -2.13405 | 2148 ft | 138 kts | 235° |
| 2026-05-04 18:35 | 53.41603 | -2.14638 | 1969 ft | 138 kts | 235° |
| 2026-05-04 18:36 | 53.40997 | -2.15882 | 1784 ft | 138 kts | 235° |
| 2026-05-04 18:36 | 53.40397 | -2.17117 | 1601 ft | 137 kts | 234° |
| 2026-05-04 18:36 | 53.39798 | -2.18352 | 1414 ft | 136 kts | 234° |
| 2026-05-04 18:36 | 53.39197 | -2.19591 | 1231 ft | 136 kts | 233° |
| 2026-05-04 18:37 | 53.38604 | -2.20807 | 1051 ft | 135 kts | 232° |
| 2026-05-04 18:37 | 53.38005 | -2.22045 | 868 ft | 135 kts | 233° |
| 2026-05-04 18:37 | 53.37430 | -2.23250 | 690 ft | 134 kts | 233° |
| 2026-05-04 18:37 | 53.36844 | -2.24458 | 513 ft | 133 kts | 232° |
| 2026-05-04 18:38 | 53.36261 | -2.25661 | 336 ft | 132 kts | 232° |
| 2026-05-04 18:38 | 53.35717 | -2.26788 | 266 ft | 106 kts | 231° |
| 2026-05-04 18:38 | 53.35422 | -2.27397 | 247 ft | 41 kts | 231° |
| 2026-05-04 18:38 | 53.35299 | -2.27666 | 242 ft | 21 kts | 244° |
| 2026-05-04 18:39 | 53.35270 | -2.27779 | 239 ft | 9 kts | 247° |
| 2026-05-04 18:39 | 53.35252 | -2.27878 | 238 ft | 8 kts | 258° |
| 2026-05-04 18:39 | 53.35243 | -2.27988 | 237 ft | 11 kts | 263° |
| 2026-05-04 18:39 | 53.35234 | -2.28110 | 235 ft | 6 kts | 263° |
| 2026-05-04 18:40 | 53.35236 | -2.28183 | 235 ft | 6 kts | 288° |
| 2026-05-04 18:40 | 53.35272 | -2.28227 | 235 ft | 7 kts | 356° |
| 2026-05-04 18:40 | 53.35325 | -2.28200 | 235 ft | 8 kts | 22° |
| 2026-05-04 18:40 | 53.35386 | -2.28159 | 235 ft | 10 kts | 21° |
| 2026-05-04 18:41 | 53.35451 | -2.28138 | 235 ft | 9 kts | 9° |
| 2026-05-04 18:41 | 53.35519 | -2.28101 | 237 ft | 10 kts | 30° |
| 2026-05-04 18:41 | 53.35566 | -2.28024 | 238 ft | 9 kts | 48° |
| 2026-05-04 18:41 | 53.35608 | -2.27938 | 238 ft | 6 kts | 53° |
| 2026-05-04 18:42 | 53.35636 | -2.27897 | 238 ft | 5 kts | 17° |
| 2026-05-04 18:42 | 53.35682 | -2.27885 | 238 ft | 7 kts | 6° |
| 2026-05-04 18:42 | 53.35739 | -2.27876 | 238 ft | 9 kts | 6° |
| 2026-05-04 18:42 | 53.35807 | -2.27865 | 238 ft | 10 kts | 6° |
| 2026-05-04 18:43 | 53.35885 | -2.27853 | 238 ft | 11 kts | 5° |
| 2026-05-04 18:43 | 53.35968 | -2.27839 | 238 ft | 11 kts | 5° |
| 2026-05-04 18:43 | 53.36046 | -2.27850 | 238 ft | 9 kts | 338° |
| 2026-05-04 18:43 | 53.36103 | -2.27921 | 236 ft | 11 kts | 320° |
| 2026-05-04 18:44 | 53.36162 | -2.28035 | 234 ft | 14 kts | 311° |
| 2026-05-04 18:44 | 53.36220 | -2.28091 | 231 ft | 16 kts | 353° |
| 2026-05-04 18:44 | 53.36344 | -2.28021 | 231 ft | 10 kts | 41° |
| 2026-05-04 18:44 | 53.36384 | -2.27941 | 234 ft | 7 kts | 72° |
| 2026-05-04 18:45 | 53.36383 | -2.27873 | 237 ft | 4 kts | 112° |
| 2026-05-04 18:45 | 53.36374 | -2.27843 | 238 ft | 1 kts | 118° |
| 2026-05-04 18:45 | 53.36373 | -2.27840 | 238 ft | 0 kts | 118° |
| 2026-05-04 18:45 | 53.36374 | -2.27843 | 238 ft | 0 kts | 117° |
| 2026-05-04 18:46 | 53.36374 | -2.27844 | 238 ft | 0 kts | 117° |
| 2026-05-04 18:46 | 53.36370 | -2.27833 | 238 ft | 1 kts | 122° |
| 2026-05-04 18:46 | 53.36360 | -2.27806 | 239 ft | 2 kts | 122° |
| 2026-05-04 18:46 | 53.36354 | -2.27791 | 240 ft | 0 kts | 121° |
| 2026-05-04 18:47 | 53.36355 | -2.27792 | 240 ft | 0 kts | 121° |
| 2026-05-04 18:47 | 53.36351 | -2.27782 | 240 ft | 1 kts | 120° |
| 2026-05-04 18:47 | 53.36351 | -2.27774 | 241 ft | 0 kts | 73° |
| 2026-05-04 18:47 | 53.36353 | -2.27772 | 241 ft | 0 kts | 39° |
| 2026-05-04 18:48 | 53.36354 | -2.27771 | 241 ft | 0 kts | 39° |
| 2026-05-04 18:48 | 53.36357 | -2.27766 | 241 ft | 3 kts | 39° |
| 2026-05-04 18:48 | 53.36375 | -2.27742 | 242 ft | 2 kts | 42° |
| 2026-05-04 18:48 | 53.36386 | -2.27724 | 243 ft | 1 kts | 49° |
| 2026-05-04 18:49 | 53.36390 | -2.27716 | 243 ft | 1 kts | 50° |
| 2026-05-04 18:49 | 53.36406 | -2.27685 | 244 ft | 2 kts | 45° |
| 2026-05-04 18:49 | 53.36409 | -2.27679 | 244 ft | 0 kts | 43° |